KRCA/RCA METAR and TAF weather

Enter ICAO airport designator
Station Type Date Time Source
KRCA METAR 2021/04/13 07:56 UTC NOAA

KRCA 130756Z 32017KT 10SM OVC030 M00/M07 A3020 RMK AO2A PK WND 31032/28 SLP256 T10051071 FZRANO $


Station Type Date Time Source
KRCA Decoded METAR 2021/04/13 07:56 UTC NOAA

Ellsworth Air Force Base, SD, United States (KRCA) 44-09N 103-06W
Apr 13, 2021 - 03:56 AM EDT / 2021.04.13 0756 UTC
Wind: from the NW (320 degrees) at 20 MPH (17 KT):0
Visibility: 10 mile(s):0
Sky conditions: overcast
Temperature: 31.1 F (-0.5 C)
Windchill: 19 F (-7 C):1
Dew Point: 19.2 F (-7.1 C)
Relative Humidity: 60%
Pressure (altimeter): 30.2 in. Hg (1022 hPa)
ob: KRCA 130756Z 32017KT 10SM OVC030 M00/M07 A3020 RMK AO2A PK WND 31032/28 SLP256 T10051071 FZRANO
cycle: 8

Station Type Date Time Source
KRCA TAF 2021/04/13 23:00 UTC NOAA

TAF TAF
AMD KRCA 122356Z 1223/1401 31025G35KT 9999 -SHRA SCT055 520001 QNH3008INS
BECMG 1302/1303 32020G25KT 9999 NSW SCT030 510001 QNH3018INS
BECMG 1310/1311 32025G30KT 9999 SCT120 520001 QNH3016INS TX06/1320Z TNM03/1309Z

Example: see airport list